Terminal Aerodrome Forecast
Issued by NWS

Home | Current Version | Previous Version | Text Only | Print | Product List | Glossary On
Versions: 1 2 3 4 5 6 7 8 9 10 11 12 13 14
000
FTUS41 KPHI 230500
TAFPNE
TAF
KPNE 230539Z 2306/2406 17003KT P6SM FEW250
     FM231300 23008KT P6SM SCT040
      TEMPO 2400/2403 4SM TSRA BKN035CB
     FM240300 25004KT P6SM BKN050=

USA.gov is the U.S. government's official web portal to all federal, state and local government web resources and services.